KLM1135 EHAM-EIDW
Flight info
| Callsign | KLM1135 |
|---|---|
| Flight time | N/A |
| Altitude | 36000 |
| Route | BERGI L60 PENIL UL28 LELDO M145 BAGSO BAGSO4L |
| Aircraft | A321/M-SDE3FGHIRWY/LB1 |
Departure
| Time | N/A |
|---|---|
| Airport | Amsterdam Airport Schiphol (EHAM) |
Arrival
| Time | 2026-05-03 20:24 |
|---|---|
| Airport | Dublin Airport (EIDW) |
| Time | Latitude | Longitude | Altitude | Speed | Heading |
|---|---|---|---|---|---|
| 2026-05-03 20:15 | 53.54702 | -6.56401 | 4395 ft | 223 kts | 266° |
| 2026-05-03 20:15 | 53.54544 | -6.58983 | 4266 ft | 221 kts | 266° |
| 2026-05-03 20:15 | 53.54392 | -6.61548 | 4101 ft | 220 kts | 266° |
| 2026-05-03 20:15 | 53.54239 | -6.64115 | 3946 ft | 220 kts | 266° |
| 2026-05-03 20:16 | 53.54084 | -6.66680 | 3791 ft | 220 kts | 266° |
| 2026-05-03 20:16 | 53.53927 | -6.69235 | 3638 ft | 220 kts | 266° |
| 2026-05-03 20:16 | 53.53772 | -6.71792 | 3485 ft | 219 kts | 266° |
| 2026-05-03 20:16 | 53.53433 | -6.74288 | 3347 ft | 222 kts | 245° |
| 2026-05-03 20:17 | 53.52462 | -6.76244 | 3293 ft | 223 kts | 215° |
| 2026-05-03 20:17 | 53.51061 | -6.77152 | 3238 ft | 214 kts | 184° |
| 2026-05-03 20:17 | 53.49612 | -6.76809 | 3180 ft | 212 kts | 154° |
| 2026-05-03 20:17 | 53.48452 | -6.75373 | 3076 ft | 205 kts | 125° |
| 2026-05-03 20:18 | 53.47726 | -6.73410 | 3021 ft | 195 kts | 115° |
| 2026-05-03 20:18 | 53.47048 | -6.71442 | 3021 ft | 194 kts | 116° |
| 2026-05-03 20:18 | 53.46371 | -6.69483 | 3022 ft | 193 kts | 115° |
| 2026-05-03 20:18 | 53.45912 | -6.67388 | 3028 ft | 190 kts | 98° |
| 2026-05-03 20:19 | 53.45709 | -6.65209 | 3051 ft | 188 kts | 93° |
| 2026-05-03 20:19 | 53.45574 | -6.63022 | 3030 ft | 188 kts | 92° |
| 2026-05-03 20:19 | 53.45456 | -6.60842 | 3027 ft | 186 kts | 91° |
| 2026-05-03 20:19 | 53.45344 | -6.58693 | 3021 ft | 184 kts | 91° |
| 2026-05-03 20:20 | 53.45233 | -6.56569 | 3024 ft | 181 kts | 92° |
| 2026-05-03 20:20 | 53.45124 | -6.54479 | 3029 ft | 178 kts | 91° |
| 2026-05-03 20:20 | 53.45016 | -6.52416 | 3025 ft | 178 kts | 91° |
| 2026-05-03 20:20 | 53.44908 | -6.50349 | 2885 ft | 178 kts | 91° |
| 2026-05-03 20:21 | 53.44799 | -6.48282 | 2668 ft | 177 kts | 91° |
| 2026-05-03 20:21 | 53.44695 | -6.46344 | 2453 ft | 163 kts | 92° |
| 2026-05-03 20:21 | 53.44596 | -6.44473 | 2230 ft | 159 kts | 92° |
| 2026-05-03 20:21 | 53.44499 | -6.42639 | 2022 ft | 157 kts | 91° |
| 2026-05-03 20:22 | 53.44403 | -6.40832 | 1805 ft | 153 kts | 91° |
| 2026-05-03 20:22 | 53.44312 | -6.39142 | 1602 ft | 140 kts | 92° |
| 2026-05-03 20:22 | 53.44226 | -6.37531 | 1412 ft | 139 kts | 91° |
| 2026-05-03 20:22 | 53.44140 | -6.35923 | 1222 ft | 138 kts | 91° |
| 2026-05-03 20:23 | 53.44055 | -6.34339 | 1032 ft | 135 kts | 93° |
| 2026-05-03 20:23 | 53.43970 | -6.32759 | 841 ft | 136 kts | 91° |
| 2026-05-03 20:23 | 53.43885 | -6.31190 | 663 ft | 134 kts | 91° |
| 2026-05-03 20:23 | 53.43801 | -6.29634 | 467 ft | 133 kts | 91° |
| 2026-05-03 20:24 | 53.43717 | -6.28094 | 274 ft | 133 kts | 91° |
| 2026-05-03 20:24 | 53.43611 | -6.26608 | 217 ft | 118 kts | 81° |
| 2026-05-03 20:24 | 53.43572 | -6.25514 | 213 ft | 68 kts | 93° |
| 2026-05-03 20:24 | 53.43547 | -6.24963 | 212 ft | 38 kts | 95° |
| 2026-05-03 20:25 | 53.43527 | -6.24611 | 220 ft | 20 kts | 112° |
| 2026-05-03 20:25 | 53.43424 | -6.24556 | 212 ft | 10 kts | 185° |
| 2026-05-03 20:25 | 53.43363 | -6.24602 | 215 ft | 9 kts | 237° |
| 2026-05-03 20:25 | 53.43360 | -6.24702 | 219 ft | 8 kts | 276° |
| 2026-05-03 20:26 | 53.43366 | -6.24791 | 217 ft | 8 kts | 275° |
| 2026-05-03 20:26 | 53.43373 | -6.24936 | 220 ft | 17 kts | 275° |
| 2026-05-03 20:26 | 53.43384 | -6.25135 | 215 ft | 18 kts | 275° |
| 2026-05-03 20:26 | 53.43394 | -6.25336 | 211 ft | 17 kts | 275° |
| 2026-05-03 20:27 | 53.43405 | -6.25528 | 211 ft | 15 kts | 275° |
| 2026-05-03 20:27 | 53.43368 | -6.25651 | 211 ft | 12 kts | 187° |
| 2026-05-03 20:27 | 53.43291 | -6.25604 | 215 ft | 11 kts | 156° |
| 2026-05-03 20:27 | 53.43218 | -6.25550 | 211 ft | 12 kts | 156° |
| 2026-05-03 20:28 | 53.43139 | -6.25493 | 211 ft | 14 kts | 157° |
| 2026-05-03 20:28 | 53.43046 | -6.25427 | 215 ft | 14 kts | 157° |
| 2026-05-03 20:28 | 53.42958 | -6.25364 | 220 ft | 9 kts | 157° |
| 2026-05-03 20:28 | 53.42949 | -6.25287 | 214 ft | 9 kts | 70° |
| 2026-05-03 20:29 | 53.42961 | -6.25178 | 211 ft | 10 kts | 94° |
| 2026-05-03 20:29 | 53.42956 | -6.25066 | 215 ft | 10 kts | 94° |
| 2026-05-03 20:29 | 53.42950 | -6.24955 | 217 ft | 9 kts | 95° |
| 2026-05-03 20:29 | 53.42944 | -6.24854 | 211 ft | 5 kts | 95° |
| 2026-05-03 20:30 | 53.42965 | -6.24820 | 213 ft | 5 kts | 15° |
| 2026-05-03 20:30 | 53.42991 | -6.24815 | 215 ft | 2 kts | 6° |
| 2026-05-03 20:30 | 53.43000 | -6.24813 | 211 ft | 0 kts | 6° |